sensor_id;sensor_type;location;lat;lon;timestamp;temperature;humidity
12655;DHT22;6392;44.644;11.448;2022-10-16T00:01:07;17.30;99.90
12655;DHT22;6392;44.644;11.448;2022-10-16T00:03:35;17.30;99.90
12655;DHT22;6392;44.644;11.448;2022-10-16T00:06:02;17.30;99.90
12655;DHT22;6392;44.644;11.448;2022-10-16T00:08:30;17.30;99.90
12655;DHT22;6392;44.644;11.448;2022-10-16T00:11:02;17.30;99.90
12655;DHT22;6392;44.644;11.448;2022-10-16T00:13:31;17.30;99.90
12655;DHT22;6392;44.644;11.448;2022-10-16T00:15:59;17.30;99.90
12655;DHT22;6392;44.644;11.448;2022-10-16T00:18:27;17.20;99.90
12655;DHT22;6392;44.644;11.448;2022-10-16T00:20:54;17.20;99.90
12655;DHT22;6392;44.644;11.448;2022-10-16T00:23:21;17.20;99.90
12655;DHT22;6392;44.644;11.448;2022-10-16T00:25:55;17.30;99.90
12655;DHT22;6392;44.644;11.448;2022-10-16T00:28:22;17.30;99.90
12655;DHT22;6392;44.644;11.448;2022-10-16T00:30:51;17.30;99.90
12655;DHT22;6392;44.644;11.448;2022-10-16T00:33:18;17.30;99.90
12655;DHT22;6392;44.644;11.448;2022-10-16T00:35:45;17.30;99.90
12655;DHT22;6392;44.644;11.448;2022-10-16T00:38:13;17.20;99.90
12655;DHT22;6392;44.644;11.448;2022-10-16T00:40:41;17.20;99.90
12655;DHT22;6392;44.644;11.448;2022-10-16T00:43:12;17.20;99.90
12655;DHT22;6392;44.644;11.448;2022-10-16T00:45:40;17.20;99.90
12655;DHT22;6392;44.644;11.448;2022-10-16T00:48:11;17.20;99.90
12655;DHT22;6392;44.644;11.448;2022-10-16T00:50:39;17.10;99.90
12655;DHT22;6392;44.644;11.448;2022-10-16T00:53:10;17.10;99.90
12655;DHT22;6392;44.644;11.448;2022-10-16T00:55:38;17.10;99.90
12655;DHT22;6392;44.644;11.448;2022-10-16T00:58:05;17.00;99.90
12655;DHT22;6392;44.644;11.448;2022-10-16T01:00:32;17.10;99.90
12655;DHT22;6392;44.644;11.448;2022-10-16T01:03:01;17.10;99.90
12655;DHT22;6392;44.644;11.448;2022-10-16T01:05:39;17.10;99.90
12655;DHT22;6392;44.644;11.448;2022-10-16T01:08:13;17.10;99.90
12655;DHT22;6392;44.644;11.448;2022-10-16T01:10:48;17.10;99.90
12655;DHT22;6392;44.644;11.448;2022-10-16T01:13:24;17.10;99.90
12655;DHT22;6392;44.644;11.448;2022-10-16T01:15:54;17.10;99.90
12655;DHT22;6392;44.644;11.448;2022-10-16T01:18:28;17.10;99.90
12655;DHT22;6392;44.644;11.448;2022-10-16T01:21:02;17.10;99.90
12655;DHT22;6392;44.644;11.448;2022-10-16T01:23:38;17.10;99.90
12655;DHT22;6392;44.644;11.448;2022-10-16T01:26:26;17.10;99.90
12655;DHT22;6392;44.644;11.448;2022-10-16T01:29:03;17.10;99.90
12655;DHT22;6392;44.644;11.448;2022-10-16T01:31:36;17.10;99.90
12655;DHT22;6392;44.644;11.448;2022-10-16T01:34:09;17.10;99.90
12655;DHT22;6392;44.644;11.448;2022-10-16T01:36:40;17.10;99.90
12655;DHT22;6392;44.644;11.448;2022-10-16T01:39:10;17.10;99.90
12655;DHT22;6392;44.644;11.448;2022-10-16T01:41:40;17.10;99.90
12655;DHT22;6392;44.644;11.448;2022-10-16T01:44:11;17.10;99.90
12655;DHT22;6392;44.644;11.448;2022-10-16T01:46:43;17.10;99.90
12655;DHT22;6392;44.644;11.448;2022-10-16T01:49:10;17.20;99.90
12655;DHT22;6392;44.644;11.448;2022-10-16T01:51:39;17.20;99.90
12655;DHT22;6392;44.644;11.448;2022-10-16T01:54:08;17.20;99.90
12655;DHT22;6392;44.644;11.448;2022-10-16T01:56:36;17.10;99.90
12655;DHT22;6392;44.644;11.448;2022-10-16T01:59:07;17.20;99.90
12655;DHT22;6392;44.644;11.448;2022-10-16T02:01:40;17.10;99.90
12655;DHT22;6392;44.644;11.448;2022-10-16T02:04:11;17.10;99.90
12655;DHT22;6392;44.644;11.448;2022-10-16T02:06:39;17.20;99.90
12655;DHT22;6392;44.644;11.448;2022-10-16T02:09:07;17.10;99.90
12655;DHT22;6392;44.644;11.448;2022-10-16T02:11:34;17.20;99.90
12655;DHT22;6392;44.644;11.448;2022-10-16T02:14:04;17.20;99.90
12655;DHT22;6392;44.644;11.448;2022-10-16T02:16:37;17.10;99.90
12655;DHT22;6392;44.644;11.448;2022-10-16T02:19:05;17.10;99.90
12655;DHT22;6392;44.644;11.448;2022-10-16T02:21:36;17.10;99.90
12655;DHT22;6392;44.644;11.448;2022-10-16T02:24:11;17.10;99.90
12655;DHT22;6392;44.644;11.448;2022-10-16T02:26:42;17.10;99.90
12655;DHT22;6392;44.644;11.448;2022-10-16T02:29:14;17.20;99.90
12655;DHT22;6392;44.644;11.448;2022-10-16T02:31:47;17.20;99.90
12655;DHT22;6392;44.644;11.448;2022-10-16T02:34:17;17.20;99.90
12655;DHT22;6392;44.644;11.448;2022-10-16T02:36:45;17.20;99.90
12655;DHT22;6392;44.644;11.448;2022-10-16T02:39:14;17.20;99.90
12655;DHT22;6392;44.644;11.448;2022-10-16T02:41:42;17.20;99.90
12655;DHT22;6392;44.644;11.448;2022-10-16T02:44:09;17.30;99.90
12655;DHT22;6392;44.644;11.448;2022-10-16T02:46:36;17.30;99.90
12655;DHT22;6392;44.644;11.448;2022-10-16T02:49:05;17.30;99.90
12655;DHT22;6392;44.644;11.448;2022-10-16T02:51:32;17.30;99.90
12655;DHT22;6392;44.644;11.448;2022-10-16T02:53:59;17.30;99.90
12655;DHT22;6392;44.644;11.448;2022-10-16T02:56:26;17.20;99.90
12655;DHT22;6392;44.644;11.448;2022-10-16T02:58:55;17.20;99.90
12655;DHT22;6392;44.644;11.448;2022-10-16T03:01:22;17.20;99.90
12655;DHT22;6392;44.644;11.448;2022-10-16T03:03:49;17.20;99.90
12655;DHT22;6392;44.644;11.448;2022-10-16T03:06:18;17.10;99.90
12655;DHT22;6392;44.644;11.448;2022-10-16T03:08:45;17.20;99.90
12655;DHT22;6392;44.644;11.448;2022-10-16T03:11:12;17.20;99.90
12655;DHT22;6392;44.644;11.448;2022-10-16T03:13:39;17.20;99.90
12655;DHT22;6392;44.644;11.448;2022-10-16T03:16:06;17.20;99.90
12655;DHT22;6392;44.644;11.448;2022-10-16T03:18:33;17.20;99.90
12655;DHT22;6392;44.644;11.448;2022-10-16T03:21:00;17.10;99.90
12655;DHT22;6392;44.644;11.448;2022-10-16T03:23:29;17.00;99.90
12655;DHT22;6392;44.644;11.448;2022-10-16T03:25:56;17.00;99.90
12655;DHT22;6392;44.644;11.448;2022-10-16T03:28:23;16.90;99.90
12655;DHT22;6392;44.644;11.448;2022-10-16T03:30:50;16.90;99.90
12655;DHT22;6392;44.644;11.448;2022-10-16T03:33:17;16.80;99.90
12655;DHT22;6392;44.644;11.448;2022-10-16T03:35:51;16.70;99.90
12655;DHT22;6392;44.644;11.448;2022-10-16T03:38:19;16.70;99.90
12655;DHT22;6392;44.644;11.448;2022-10-16T03:40:47;16.70;99.90
12655;DHT22;6392;44.644;11.448;2022-10-16T03:43:14;16.50;99.90
12655;DHT22;6392;44.644;11.448;2022-10-16T03:45:41;16.70;99.90
12655;DHT22;6392;44.644;11.448;2022-10-16T03:48:09;16.60;99.90
12655;DHT22;6392;44.644;11.448;2022-10-16T03:50:36;16.50;99.90
12655;DHT22;6392;44.644;11.448;2022-10-16T03:53:03;16.40;99.90
12655;DHT22;6392;44.644;11.448;2022-10-16T03:55:30;16.40;99.90
12655;DHT22;6392;44.644;11.448;2022-10-16T03:57:59;16.40;99.90
12655;DHT22;6392;44.644;11.448;2022-10-16T04:00:26;16.30;99.90
12655;DHT22;6392;44.644;11.448;2022-10-16T04:02:53;16.30;99.90
12655;DHT22;6392;44.644;11.448;2022-10-16T04:05:20;16.30;99.90
12655;DHT22;6392;44.644;11.448;2022-10-16T04:07:47;16.30;99.90
12655;DHT22;6392;44.644;11.448;2022-10-16T04:10:14;16.30;99.90
12655;DHT22;6392;44.644;11.448;2022-10-16T04:12:41;16.30;99.90
12655;DHT22;6392;44.644;11.448;2022-10-16T04:15:10;16.20;99.90
12655;DHT22;6392;44.644;11.448;2022-10-16T04:17:37;16.20;99.90
12655;DHT22;6392;44.644;11.448;2022-10-16T04:20:05;16.20;99.90
12655;DHT22;6392;44.644;11.448;2022-10-16T04:22:32;16.10;99.90
12655;DHT22;6392;44.644;11.448;2022-10-16T04:24:59;16.10;99.90
12655;DHT22;6392;44.644;11.448;2022-10-16T04:27:26;16.10;99.90
12655;DHT22;6392;44.644;11.448;2022-10-16T04:29:54;16.10;99.90
12655;DHT22;6392;44.644;11.448;2022-10-16T04:32:22;16.10;99.90
12655;DHT22;6392;44.644;11.448;2022-10-16T04:34:49;16.00;99.90
12655;DHT22;6392;44.644;11.448;2022-10-16T04:37:16;16.00;99.90
12655;DHT22;6392;44.644;11.448;2022-10-16T04:39:43;16.00;99.90
12655;DHT22;6392;44.644;11.448;2022-10-16T04:42:11;15.90;99.90
12655;DHT22;6392;44.644;11.448;2022-10-16T04:44:38;15.80;99.90
12655;DHT22;6392;44.644;11.448;2022-10-16T04:47:05;15.80;99.90
12655;DHT22;6392;44.644;11.448;2022-10-16T04:49:34;15.60;99.90
12655;DHT22;6392;44.644;11.448;2022-10-16T04:52:01;15.50;99.90
12655;DHT22;6392;44.644;11.448;2022-10-16T04:54:28;15.40;99.90
12655;DHT22;6392;44.644;11.448;2022-10-16T04:56:55;15.30;99.90
12655;DHT22;6392;44.644;11.448;2022-10-16T04:59:22;15.30;99.90
12655;DHT22;6392;44.644;11.448;2022-10-16T05:01:49;15.20;99.90
12655;DHT22;6392;44.644;11.448;2022-10-16T05:04:16;15.30;99.90
12655;DHT22;6392;44.644;11.448;2022-10-16T05:06:45;15.40;99.90
12655;DHT22;6392;44.644;11.448;2022-10-16T05:09:12;15.40;99.90
12655;DHT22;6392;44.644;11.448;2022-10-16T05:11:39;15.60;99.90
12655;DHT22;6392;44.644;11.448;2022-10-16T05:14:06;15.60;99.90
12655;DHT22;6392;44.644;11.448;2022-10-16T05:16:33;15.70;99.90
12655;DHT22;6392;44.644;11.448;2022-10-16T05:19:00;15.60;99.90
12655;DHT22;6392;44.644;11.448;2022-10-16T05:21:27;15.50;99.90
12655;DHT22;6392;44.644;11.448;2022-10-16T05:23:55;15.60;99.90
12655;DHT22;6392;44.644;11.448;2022-10-16T05:26:22;15.40;99.90
12655;DHT22;6392;44.644;11.448;2022-10-16T05:28:49;15.30;99.90
12655;DHT22;6392;44.644;11.448;2022-10-16T05:31:16;15.20;99.90
12655;DHT22;6392;44.644;11.448;2022-10-16T05:33:43;15.20;99.90
12655;DHT22;6392;44.644;11.448;2022-10-16T05:36:11;15.30;99.90
12655;DHT22;6392;44.644;11.448;2022-10-16T05:38:39;15.30;99.90
12655;DHT22;6392;44.644;11.448;2022-10-16T05:41:08;15.30;99.90
12655;DHT22;6392;44.644;11.448;2022-10-16T05:43:35;15.30;99.90
12655;DHT22;6392;44.644;11.448;2022-10-16T05:46:04;15.20;99.90
12655;DHT22;6392;44.644;11.448;2022-10-16T05:48:32;15.20;99.90
12655;DHT22;6392;44.644;11.448;2022-10-16T05:51:01;15.10;99.90
12655;DHT22;6392;44.644;11.448;2022-10-16T05:53:28;15.10;99.90
12655;DHT22;6392;44.644;11.448;2022-10-16T05:55:57;15.10;99.90
12655;DHT22;6392;44.644;11.448;2022-10-16T05:58:28;15.00;99.90
12655;DHT22;6392;44.644;11.448;2022-10-16T06:00:57;15.00;99.90
12655;DHT22;6392;44.644;11.448;2022-10-16T06:03:24;14.90;99.90
12655;DHT22;6392;44.644;11.448;2022-10-16T06:05:51;14.80;99.90
12655;DHT22;6392;44.644;11.448;2022-10-16T06:08:20;14.90;99.90
12655;DHT22;6392;44.644;11.448;2022-10-16T06:10:47;14.90;99.90
12655;DHT22;6392;44.644;11.448;2022-10-16T06:13:15;14.90;99.90
12655;DHT22;6392;44.644;11.448;2022-10-16T06:15:43;14.90;99.90
12655;DHT22;6392;44.644;11.448;2022-10-16T06:18:11;15.00;99.90
12655;DHT22;6392;44.644;11.448;2022-10-16T06:20:38;15.00;99.90
12655;DHT22;6392;44.644;11.448;2022-10-16T06:23:05;15.10;99.90
12655;DHT22;6392;44.644;11.448;2022-10-16T06:25:32;15.20;99.90
12655;DHT22;6392;44.644;11.448;2022-10-16T06:27:59;15.20;99.90
12655;DHT22;6392;44.644;11.448;2022-10-16T06:30:26;15.20;99.90
12655;DHT22;6392;44.644;11.448;2022-10-16T06:32:54;15.20;99.90
12655;DHT22;6392;44.644;11.448;2022-10-16T06:35:21;15.30;99.90
12655;DHT22;6392;44.644;11.448;2022-10-16T06:37:49;15.30;99.90
12655;DHT22;6392;44.644;11.448;2022-10-16T06:40:16;15.30;99.90
12655;DHT22;6392;44.644;11.448;2022-10-16T06:42:43;15.40;99.90
12655;DHT22;6392;44.644;11.448;2022-10-16T06:45:10;15.40;99.90
12655;DHT22;6392;44.644;11.448;2022-10-16T06:47:38;15.50;99.90
12655;DHT22;6392;44.644;11.448;2022-10-16T06:50:07;15.60;99.90
12655;DHT22;6392;44.644;11.448;2022-10-16T06:52:34;15.60;99.90
12655;DHT22;6392;44.644;11.448;2022-10-16T06:55:01;15.70;99.90
12655;DHT22;6392;44.644;11.448;2022-10-16T06:57:29;15.70;99.90
12655;DHT22;6392;44.644;11.448;2022-10-16T06:59:56;15.80;99.90
12655;DHT22;6392;44.644;11.448;2022-10-16T07:02:23;15.90;99.90
12655;DHT22;6392;44.644;11.448;2022-10-16T07:04:50;15.90;99.90
12655;DHT22;6392;44.644;11.448;2022-10-16T07:07:19;16.00;99.90
12655;DHT22;6392;44.644;11.448;2022-10-16T07:09:46;16.10;99.90
12655;DHT22;6392;44.644;11.448;2022-10-16T07:12:13;16.20;99.90
12655;DHT22;6392;44.644;11.448;2022-10-16T07:14:40;16.20;99.90
12655;DHT22;6392;44.644;11.448;2022-10-16T07:17:07;16.20;99.90
12655;DHT22;6392;44.644;11.448;2022-10-16T07:19:34;16.30;99.90
12655;DHT22;6392;44.644;11.448;2022-10-16T07:22:01;16.40;99.90
12655;DHT22;6392;44.644;11.448;2022-10-16T07:24:30;16.50;99.90
12655;DHT22;6392;44.644;11.448;2022-10-16T07:26:57;16.60;99.90
12655;DHT22;6392;44.644;11.448;2022-10-16T07:29:24;16.60;99.90
12655;DHT22;6392;44.644;11.448;2022-10-16T07:31:51;16.70;99.90
12655;DHT22;6392;44.644;11.448;2022-10-16T07:34:19;16.80;99.90
12655;DHT22;6392;44.644;11.448;2022-10-16T07:36:48;16.90;99.90
12655;DHT22;6392;44.644;11.448;2022-10-16T07:39:16;17.00;99.90
12655;DHT22;6392;44.644;11.448;2022-10-16T07:41:44;17.10;99.90
12655;DHT22;6392;44.644;11.448;2022-10-16T07:44:11;17.10;99.90
12655;DHT22;6392;44.644;11.448;2022-10-16T07:46:38;17.20;99.90
12655;DHT22;6392;44.644;11.448;2022-10-16T07:49:06;17.20;99.90
12655;DHT22;6392;44.644;11.448;2022-10-16T07:51:33;17.30;99.90
12655;DHT22;6392;44.644;11.448;2022-10-16T07:54:00;17.40;99.90
12655;DHT22;6392;44.644;11.448;2022-10-16T07:56:27;17.50;99.90
12655;DHT22;6392;44.644;11.448;2022-10-16T07:58:55;17.60;99.90
12655;DHT22;6392;44.644;11.448;2022-10-16T08:01:23;17.60;99.90
12655;DHT22;6392;44.644;11.448;2022-10-16T08:03:51;17.60;99.90
12655;DHT22;6392;44.644;11.448;2022-10-16T08:06:19;17.70;99.90
12655;DHT22;6392;44.644;11.448;2022-10-16T08:08:46;17.70;99.90
12655;DHT22;6392;44.644;11.448;2022-10-16T08:11:14;17.80;99.90
12655;DHT22;6392;44.644;11.448;2022-10-16T08:13:41;17.90;99.90
12655;DHT22;6392;44.644;11.448;2022-10-16T08:16:10;17.90;99.90
12655;DHT22;6392;44.644;11.448;2022-10-16T08:18:38;18.00;99.90
12655;DHT22;6392;44.644;11.448;2022-10-16T08:21:12;18.00;99.90
12655;DHT22;6392;44.644;11.448;2022-10-16T08:23:39;18.10;99.90
12655;DHT22;6392;44.644;11.448;2022-10-16T08:26:07;18.10;99.90
12655;DHT22;6392;44.644;11.448;2022-10-16T08:28:35;18.10;99.90
12655;DHT22;6392;44.644;11.448;2022-10-16T08:31:12;18.20;99.90
12655;DHT22;6392;44.644;11.448;2022-10-16T08:33:44;18.20;99.90
12655;DHT22;6392;44.644;11.448;2022-10-16T08:36:13;18.30;99.90
12655;DHT22;6392;44.644;11.448;2022-10-16T08:38:40;18.30;99.90
12655;DHT22;6392;44.644;11.448;2022-10-16T08:41:37;18.40;99.90
12655;DHT22;6392;44.644;11.448;2022-10-16T08:44:30;18.50;99.90
12655;DHT22;6392;44.644;11.448;2022-10-16T08:47:10;18.50;99.90
12655;DHT22;6392;44.644;11.448;2022-10-16T08:49:42;18.50;99.90
12655;DHT22;6392;44.644;11.448;2022-10-16T08:52:12;18.50;99.90
12655;DHT22;6392;44.644;11.448;2022-10-16T08:54:43;18.60;99.90
12655;DHT22;6392;44.644;11.448;2022-10-16T08:57:13;18.60;99.90
12655;DHT22;6392;44.644;11.448;2022-10-16T08:59:40;18.70;99.90
12655;DHT22;6392;44.644;11.448;2022-10-16T09:02:24;18.70;99.90
12655;DHT22;6392;44.644;11.448;2022-10-16T09:05:08;18.70;99.90
12655;DHT22;6392;44.644;11.448;2022-10-16T09:07:48;18.80;99.90
12655;DHT22;6392;44.644;11.448;2022-10-16T09:10:28;18.70;99.90
12655;DHT22;6392;44.644;11.448;2022-10-16T09:13:02;18.90;99.90
12655;DHT22;6392;44.644;11.448;2022-10-16T09:15:37;18.90;99.90
12655;DHT22;6392;44.644;11.448;2022-10-16T09:18:14;19.00;99.90
12655;DHT22;6392;44.644;11.448;2022-10-16T09:20:49;19.00;99.90
12655;DHT22;6392;44.644;11.448;2022-10-16T09:23:18;19.10;99.90
12655;DHT22;6392;44.644;11.448;2022-10-16T09:25:49;19.10;99.90
12655;DHT22;6392;44.644;11.448;2022-10-16T09:28:17;19.20;99.90
12655;DHT22;6392;44.644;11.448;2022-10-16T09:30:45;19.10;99.90
12655;DHT22;6392;44.644;11.448;2022-10-16T09:33:16;19.10;99.90
12655;DHT22;6392;44.644;11.448;2022-10-16T09:35:45;19.20;99.90
12655;DHT22;6392;44.644;11.448;2022-10-16T09:38:24;19.20;99.90
12655;DHT22;6392;44.644;11.448;2022-10-16T09:40:52;19.30;99.90
12655;DHT22;6392;44.644;11.448;2022-10-16T09:43:23;19.30;99.90
12655;DHT22;6392;44.644;11.448;2022-10-16T09:45:55;19.30;99.90
12655;DHT22;6392;44.644;11.448;2022-10-16T09:48:26;19.40;99.90
12655;DHT22;6392;44.644;11.448;2022-10-16T09:50:58;19.40;99.90
12655;DHT22;6392;44.644;11.448;2022-10-16T09:53:37;19.40;99.90
12655;DHT22;6392;44.644;11.448;2022-10-16T09:56:05;19.50;99.90
12655;DHT22;6392;44.644;11.448;2022-10-16T09:58:33;19.60;99.90
12655;DHT22;6392;44.644;11.448;2022-10-16T10:01:00;19.70;99.90
12655;DHT22;6392;44.644;11.448;2022-10-16T10:03:40;19.80;99.90
12655;DHT22;6392;44.644;11.448;2022-10-16T10:06:17;19.70;99.90
12655;DHT22;6392;44.644;11.448;2022-10-16T10:08:56;19.80;99.90
12655;DHT22;6392;44.644;11.448;2022-10-16T10:11:44;19.80;99.90
12655;DHT22;6392;44.644;11.448;2022-10-16T10:14:17;19.80;99.90
12655;DHT22;6392;44.644;11.448;2022-10-16T10:16:45;19.80;99.90
12655;DHT22;6392;44.644;11.448;2022-10-16T10:19:18;19.80;99.90
12655;DHT22;6392;44.644;11.448;2022-10-16T10:21:46;19.80;99.90
12655;DHT22;6392;44.644;11.448;2022-10-16T10:24:14;19.90;99.90
12655;DHT22;6392;44.644;11.448;2022-10-16T10:26:49;20.00;99.90
12655;DHT22;6392;44.644;11.448;2022-10-16T10:29:34;20.00;99.90
12655;DHT22;6392;44.644;11.448;2022-10-16T10:32:11;20.10;99.90
12655;DHT22;6392;44.644;11.448;2022-10-16T10:34:54;20.20;99.90
12655;DHT22;6392;44.644;11.448;2022-10-16T10:37:39;20.30;99.90
12655;DHT22;6392;44.644;11.448;2022-10-16T10:40:18;20.20;99.90
12655;DHT22;6392;44.644;11.448;2022-10-16T10:42:53;20.30;99.90
12655;DHT22;6392;44.644;11.448;2022-10-16T10:45:27;20.30;99.90
12655;DHT22;6392;44.644;11.448;2022-10-16T10:48:12;20.30;99.90
12655;DHT22;6392;44.644;11.448;2022-10-16T10:50:47;20.30;99.90
12655;DHT22;6392;44.644;11.448;2022-10-16T10:53:28;20.20;99.90
12655;DHT22;6392;44.644;11.448;2022-10-16T10:56:06;20.20;99.90
12655;DHT22;6392;44.644;11.448;2022-10-16T10:59:08;20.20;99.90
12655;DHT22;6392;44.644;11.448;2022-10-16T11:01:48;20.20;99.90
12655;DHT22;6392;44.644;11.448;2022-10-16T11:04:34;20.30;99.90
12655;DHT22;6392;44.644;11.448;2022-10-16T11:07:07;20.30;99.90
12655;DHT22;6392;44.644;11.448;2022-10-16T11:09:40;20.30;99.90
12655;DHT22;6392;44.644;11.448;2022-10-16T11:12:14;20.30;99.90
12655;DHT22;6392;44.644;11.448;2022-10-16T11:14:48;20.30;99.90
12655;DHT22;6392;44.644;11.448;2022-10-16T11:17:22;20.30;99.90
12655;DHT22;6392;44.644;11.448;2022-10-16T11:19:54;20.30;99.90
12655;DHT22;6392;44.644;11.448;2022-10-16T11:22:29;20.30;99.90
12655;DHT22;6392;44.644;11.448;2022-10-16T11:25:02;20.30;99.90
12655;DHT22;6392;44.644;11.448;2022-10-16T11:27:37;20.40;99.90
12655;DHT22;6392;44.644;11.448;2022-10-16T11:30:12;20.50;99.90
12655;DHT22;6392;44.644;11.448;2022-10-16T11:32:49;20.50;99.90
12655;DHT22;6392;44.644;11.448;2022-10-16T11:35:22;20.60;99.90
12655;DHT22;6392;44.644;11.448;2022-10-16T11:37:53;20.60;99.90
12655;DHT22;6392;44.644;11.448;2022-10-16T11:40:28;20.50;99.90
12655;DHT22;6392;44.644;11.448;2022-10-16T11:43:00;20.60;99.90
12655;DHT22;6392;44.644;11.448;2022-10-16T11:45:34;20.60;99.90
12655;DHT22;6392;44.644;11.448;2022-10-16T11:48:08;20.60;99.90
12655;DHT22;6392;44.644;11.448;2022-10-16T11:50:45;20.60;99.90
12655;DHT22;6392;44.644;11.448;2022-10-16T11:53:21;20.60;99.90
12655;DHT22;6392;44.644;11.448;2022-10-16T11:55:50;20.60;99.90
12655;DHT22;6392;44.644;11.448;2022-10-16T11:58:23;20.60;99.90
12655;DHT22;6392;44.644;11.448;2022-10-16T12:00:58;20.70;99.90
12655;DHT22;6392;44.644;11.448;2022-10-16T12:03:30;20.70;99.90
12655;DHT22;6392;44.644;11.448;2022-10-16T12:06:13;20.60;99.90
12655;DHT22;6392;44.644;11.448;2022-10-16T12:08:45;20.70;99.90
12655;DHT22;6392;44.644;11.448;2022-10-16T12:11:36;20.80;99.90
12655;DHT22;6392;44.644;11.448;2022-10-16T12:14:18;20.80;99.90
12655;DHT22;6392;44.644;11.448;2022-10-16T12:16:54;20.80;99.90
12655;DHT22;6392;44.644;11.448;2022-10-16T12:19:23;20.80;99.90
12655;DHT22;6392;44.644;11.448;2022-10-16T12:21:51;20.70;99.90
12655;DHT22;6392;44.644;11.448;2022-10-16T12:24:31;20.80;99.90
12655;DHT22;6392;44.644;11.448;2022-10-16T12:26:59;21.00;99.90
12655;DHT22;6392;44.644;11.448;2022-10-16T12:29:34;21.20;99.90
12655;DHT22;6392;44.644;11.448;2022-10-16T12:32:04;21.30;99.90
12655;DHT22;6392;44.644;11.448;2022-10-16T12:34:38;21.20;99.90
12655;DHT22;6392;44.644;11.448;2022-10-16T12:37:12;21.20;99.90
12655;DHT22;6392;44.644;11.448;2022-10-16T12:39:41;21.10;99.90
12655;DHT22;6392;44.644;11.448;2022-10-16T12:42:22;21.10;99.90
12655;DHT22;6392;44.644;11.448;2022-10-16T12:44:50;21.00;99.90
12655;DHT22;6392;44.644;11.448;2022-10-16T12:47:22;21.00;99.90
12655;DHT22;6392;44.644;11.448;2022-10-16T12:49:51;21.10;99.90
12655;DHT22;6392;44.644;11.448;2022-10-16T12:52:27;21.10;99.90
12655;DHT22;6392;44.644;11.448;2022-10-16T12:54:57;21.10;99.90
12655;DHT22;6392;44.644;11.448;2022-10-16T12:57:41;21.10;99.90
12655;DHT22;6392;44.644;11.448;2022-10-16T13:00:19;21.10;99.90
12655;DHT22;6392;44.644;11.448;2022-10-16T13:03:05;21.20;99.90
12655;DHT22;6392;44.644;11.448;2022-10-16T13:05:49;21.20;99.90
12655;DHT22;6392;44.644;11.448;2022-10-16T13:08:39;21.20;99.90
12655;DHT22;6392;44.644;11.448;2022-10-16T13:11:17;21.20;99.90
12655;DHT22;6392;44.644;11.448;2022-10-16T13:13:59;21.30;99.90
12655;DHT22;6392;44.644;11.448;2022-10-16T13:16:38;21.20;99.90
12655;DHT22;6392;44.644;11.448;2022-10-16T13:19:15;21.20;99.90
12655;DHT22;6392;44.644;11.448;2022-10-16T13:21:49;21.30;99.90
12655;DHT22;6392;44.644;11.448;2022-10-16T13:24:31;21.30;99.90
12655;DHT22;6392;44.644;11.448;2022-10-16T13:27:09;21.30;99.90
12655;DHT22;6392;44.644;11.448;2022-10-16T13:29:40;21.40;99.90
12655;DHT22;6392;44.644;11.448;2022-10-16T13:32:10;21.40;99.90
12655;DHT22;6392;44.644;11.448;2022-10-16T13:34:45;21.40;99.90
12655;DHT22;6392;44.644;11.448;2022-10-16T13:37:18;21.30;99.90
12655;DHT22;6392;44.644;11.448;2022-10-16T13:39:45;21.30;99.90
12655;DHT22;6392;44.644;11.448;2022-10-16T13:42:18;21.30;99.90
12655;DHT22;6392;44.644;11.448;2022-10-16T13:44:50;21.30;99.90
12655;DHT22;6392;44.644;11.448;2022-10-16T13:47:19;21.30;99.90
12655;DHT22;6392;44.644;11.448;2022-10-16T13:49:58;21.30;99.90
12655;DHT22;6392;44.644;11.448;2022-10-16T13:52:25;21.30;99.90
12655;DHT22;6392;44.644;11.448;2022-10-16T13:54:52;21.30;99.90
12655;DHT22;6392;44.644;11.448;2022-10-16T13:57:22;21.40;99.90
12655;DHT22;6392;44.644;11.448;2022-10-16T13:59:50;21.50;99.90
12655;DHT22;6392;44.644;11.448;2022-10-16T14:02:21;21.50;99.90
12655;DHT22;6392;44.644;11.448;2022-10-16T14:04:50;21.50;99.90
12655;DHT22;6392;44.644;11.448;2022-10-16T14:07:23;21.50;99.90
12655;DHT22;6392;44.644;11.448;2022-10-16T14:09:52;21.50;99.90
12655;DHT22;6392;44.644;11.448;2022-10-16T14:12:22;21.40;99.90
12655;DHT22;6392;44.644;11.448;2022-10-16T14:14:51;21.40;99.90
12655;DHT22;6392;44.644;11.448;2022-10-16T14:17:21;21.50;99.90
12655;DHT22;6392;44.644;11.448;2022-10-16T14:19:50;21.50;99.90
12655;DHT22;6392;44.644;11.448;2022-10-16T14:22:30;21.40;99.90
12655;DHT22;6392;44.644;11.448;2022-10-16T14:24:58;21.40;99.90
12655;DHT22;6392;44.644;11.448;2022-10-16T14:27:30;21.40;99.90
12655;DHT22;6392;44.644;11.448;2022-10-16T14:30:13;21.40;99.90
12655;DHT22;6392;44.644;11.448;2022-10-16T14:32:41;21.40;99.90
12655;DHT22;6392;44.644;11.448;2022-10-16T14:35:23;21.40;99.90
12655;DHT22;6392;44.644;11.448;2022-10-16T14:37:52;21.40;99.90
12655;DHT22;6392;44.644;11.448;2022-10-16T14:40:21;21.50;99.90
12655;DHT22;6392;44.644;11.448;2022-10-16T14:42:51;21.40;99.90
12655;DHT22;6392;44.644;11.448;2022-10-16T14:45:19;21.40;99.90
12655;DHT22;6392;44.644;11.448;2022-10-16T14:47:50;21.40;99.90
12655;DHT22;6392;44.644;11.448;2022-10-16T14:50:18;21.50;99.90
12655;DHT22;6392;44.644;11.448;2022-10-16T14:52:45;21.40;99.90
12655;DHT22;6392;44.644;11.448;2022-10-16T14:55:12;21.50;99.90
12655;DHT22;6392;44.644;11.448;2022-10-16T14:57:41;21.50;99.90
12655;DHT22;6392;44.644;11.448;2022-10-16T15:00:15;21.50;99.90
12655;DHT22;6392;44.644;11.448;2022-10-16T15:02:44;21.50;99.90
12655;DHT22;6392;44.644;11.448;2022-10-16T15:05:15;21.50;99.90
12655;DHT22;6392;44.644;11.448;2022-10-16T15:07:43;21.50;99.90
12655;DHT22;6392;44.644;11.448;2022-10-16T15:10:10;21.50;99.90
12655;DHT22;6392;44.644;11.448;2022-10-16T15:12:38;21.50;99.90
12655;DHT22;6392;44.644;11.448;2022-10-16T15:15:33;21.50;99.90
12655;DHT22;6392;44.644;11.448;2022-10-16T15:18:01;21.50;99.90
12655;DHT22;6392;44.644;11.448;2022-10-16T15:20:30;21.50;99.90
12655;DHT22;6392;44.644;11.448;2022-10-16T15:22:59;21.50;99.90
12655;DHT22;6392;44.644;11.448;2022-10-16T15:25:38;21.50;99.90
12655;DHT22;6392;44.644;11.448;2022-10-16T15:28:06;21.50;99.90
12655;DHT22;6392;44.644;11.448;2022-10-16T15:30:35;21.50;99.90
12655;DHT22;6392;44.644;11.448;2022-10-16T15:33:03;21.50;99.90
12655;DHT22;6392;44.644;11.448;2022-10-16T15:35:31;21.50;99.90
12655;DHT22;6392;44.644;11.448;2022-10-16T15:37:58;21.50;99.90
12655;DHT22;6392;44.644;11.448;2022-10-16T15:40:25;21.50;99.90
12655;DHT22;6392;44.644;11.448;2022-10-16T15:42:52;21.50;99.90
12655;DHT22;6392;44.644;11.448;2022-10-16T15:45:19;21.60;99.90
12655;DHT22;6392;44.644;11.448;2022-10-16T15:47:48;21.60;99.90
12655;DHT22;6392;44.644;11.448;2022-10-16T15:50:16;21.60;99.90
12655;DHT22;6392;44.644;11.448;2022-10-16T15:52:43;21.60;99.90